Burukan, Russia
Current Conditions -  °F | °C
As of 7:30 PM on Saturday 25 Oct 2014 (Local Time) from UHHH Reporting Station
Broken Clouds Broken Clouds  
Wind Chill: 30°   Ceiling: 20000
Heat Index: 36°   Visibility: 6mi
Dew Point: 32°   Wind: 7mph
Humidity: 87%   Direction: 70°ENE
Pressure: 29.94"   Gusts: NA
Location:  53.05°N, 136.03°E
Report Text: UHHH 250930Z 07003MPS 9999 SCT023 BKN200 02/M00 Q1014 NOSIG RMKQFE754/1006 55090060
Loading
Personal Weather Stations






























Interactive Weather Map
Tropical Storm Tracking
New forecast layout! Learn more

10-Day Weather Forecast

Advertisements
Track Severe Weather on mobile